Latest Weather Observations for Sydney Harbour

IDN60801

Issued at 5:02 am EST Thursday 7 May 2015 (issued every 30 minutes, with the page automatically refreshed every 10 minutes)

About weather observations | Map of weather stations | Latest weather observations for NSW | Other Formats
Station Details ID: 066196 Name: WEDDING CAKE WEST Lat: -33.84 Lon: 151.26 Height: 6.0 m
Data from the previous 72 hours. | See also: Recent months for locations in New South Wales
Date/Time
EST
Temp
°C
App
Temp
°C
Dew
Point
Rel
Hum
%
Delta-T
°C
Wind Press
QNH
hPa
Press
MSL
hPa
Rain
since 9 am
mm
Dir
 
Spd
km/h
Gust
km/h
Spd
kts
Gust
kts
07/05:00am 13.2 - - - - WNW 13 19 7 10 - - -
07/04:30am 14.0 - - - - WNW 19 26 10 14 - - -
07/04:00am 13.8 - - - - WNW 19 26 10 14 - - -
07/03:30am 14.1 - - - - WNW 22 30 12 16 - - -
07/03:00am 14.2 - - - - W 24 30 13 16 - - -
07/02:30am 14.6 - - - - W 20 30 11 16 - - -
07/02:00am 14.6 - - - - W 20 26 11 14 - - -
07/01:30am 15.2 - - - - W 28 39 15 21 - - -
07/01:00am 15.5 - - - - W 20 33 11 18 - - -
07/12:30am 15.0 - - - - W 19 26 10 14 - - -
07/12:00am 15.0 - - - - WNW 20 30 11 16 - - -
 
Date/Time
EST
Temp
°C
App
Temp
°C
Dew
Point
Rel
Hum
%
Delta-T
°C
Wind Press
QNH
hPa
Press
MSL
hPa
Rain
since 9 am
mm
Dir
 
Spd
km/h
Gust
km/h
Spd
kts
Gust
kts
06/11:30pm 15.5 - - - - WNW 17 26 9 14 - - -
06/11:00pm 15.6 - - - - W 26 43 14 23 - - -
06/10:30pm 15.7 - - - - W 28 41 15 22 - - -
06/10:00pm 15.9 - - - - W 24 32 13 17 - - -
06/09:30pm 15.9 - - - - W 22 30 12 16 - - -
06/09:00pm 16.3 - - - - W 17 22 9 12 - - -
06/08:30pm 16.6 - - - - W 17 22 9 12 - - -
06/08:00pm 16.9 - - - - W 24 32 13 17 - - -
06/07:30pm 17.2 - - - - SW 22 30 12 16 - - -
06/07:00pm 17.5 - - - - WSW 20 32 11 17 - - -
06/06:30pm 17.8 - - - - WSW 22 32 12 17 - - -
06/06:00pm 18.1 - - - - WSW 22 30 12 16 - - -
06/05:30pm 18.5 - - - - WSW 19 26 10 14 - - -
06/05:00pm 18.9 - - - - WSW 26 33 14 18 - - -
06/04:30pm 19.4 - - - - WSW 20 24 11 13 - - -
06/04:00pm 19.6 - - - - W 20 30 11 16 - - -
06/03:30pm 19.7 - - - - W 22 28 12 15 - - -
06/03:00pm 19.4 - - - - W 24 30 13 16 - - -
06/02:30pm 19.2 - - - - W 17 26 9 14 - - -
06/02:00pm 18.5 - - - - W 20 33 11 18 - - -
06/01:30pm 18.2 - - - - WSW 26 39 14 21 - - -
06/01:00pm 18.1 - - - - W 24 37 13 20 - - -
06/12:30pm 17.5 - - - - WSW 28 39 15 21 - - -
06/12:00pm 17.1 - - - - W 28 44 15 24 - - -
06/11:30am 16.8 - - - - W 28 39 15 21 - - -
06/11:00am 16.4 - - - - W 30 39 16 21 - - -
06/10:30am 16.0 - - - - W 28 39 15 21 - - -
06/10:00am 15.7 - - - - W 24 32 13 17 - - -
06/09:30am 15.6 - - - - W 28 37 15 20 - - -
06/09:00am 15.3 - - - - WNW 28 39 15 21 - - -
06/08:30am 15.0 - - - - W 24 33 13 18 - - -
06/08:00am 14.7 - - - - W 20 26 11 14 - - -
06/07:30am 14.5 - - - - WNW 17 22 9 12 - - -
06/07:00am 14.2 - - - - WNW 13 17 7 9 - - -
06/06:30am 14.8 - - - - W 19 32 10 17 - - -
06/06:00am 15.1 - - - - W 22 32 12 17 - - -
06/05:30am 15.3 - - - - WSW 22 39 12 21 - - -
06/05:00am 15.7 - - - - W 20 26 11 14 - - -
06/04:30am 15.9 - - - - W 22 28 12 15 - - -
06/04:00am 16.5 - - - - WSW 17 22 9 12 - - -
06/03:30am 17.0 - - - - W 20 32 11 17 - - -
06/03:00am 17.1 - - - - W 17 20 9 11 - - -
06/02:30am 17.6 - - - - WSW 13 20 7 11 - - -
06/02:00am 17.6 - - - - WSW 20 28 11 15 - - -
06/01:30am 18.1 - - - - WNW 26 32 14 17 - - -
06/01:00am 19.0 - - - - WSW 22 32 12 17 - - -
06/12:30am 19.3 - - - - WSW 32 44 17 24 - - -
06/12:00am 19.6 - - - - WSW 26 41 14 22 - - -
 
Date/Time
EST
Temp
°C
App
Temp
°C
Dew
Point
Rel
Hum
%
Delta-T
°C
Wind Press
QNH
hPa
Press
MSL
hPa
Rain
since 9 am
mm
Dir
 
Spd
km/h
Gust
km/h
Spd
kts
Gust
kts
05/11:40pm 19.8 - - - - WSW 28 46 15 25 - - -
05/11:30pm 19.8 - - - - W 24 35 13 19 - - -
05/11:00pm 20.4 - - - - WSW 24 32 13 17 - - -
05/10:30pm 21.2 - - - - WSW 26 41 14 22 - - -
05/10:15pm 21.7 - - - - WSW 28 46 15 25 - - -
05/10:13pm 21.8 - - - - WSW 28 43 15 23 - - -
05/10:00pm 21.6 - - - - W 19 24 10 13 - - -
05/09:30pm 21.7 - - - - W 9 13 5 7 - - -
05/09:00pm 22.5 - - - - NNW 9 13 5 7 - - -
05/08:30pm 22.3 - - - - N 9 13 5 7 - - -
05/08:00pm 22.4 - - - - N 11 13 6 7 - - -
05/07:30pm 22.7 - - - - N 11 13 6 7 - - -
05/07:00pm 23.3 - - - - N 9 15 5 8 - - -
05/06:30pm 23.4 - - - - N 13 19 7 10 - - -
05/06:00pm 23.6 - - - - N 13 17 7 9 - - -
05/05:30pm 24.0 - - - - N 15 19 8 10 - - -
05/05:00pm 24.7 - - - - N 19 24 10 13 - - -
05/04:30pm 25.3 - - - - N 20 26 11 14 - - -
05/04:00pm 25.5 - - - - NNW 24 32 13 17 - - -
05/03:30pm 25.8 - - - - N 28 35 15 19 - - -
05/03:00pm 25.5 - - - - NNW 24 39 13 21 - - -
05/02:30pm 25.6 - - - - N 24 37 13 20 - - -
05/02:00pm 25.2 - - - - N 28 37 15 20 - - -
05/01:30pm 24.8 - - - - N 26 33 14 18 - - -
05/01:00pm 24.5 - - - - NNW 20 30 11 16 - - -
05/12:30pm 24.5 - - - - NW 15 20 8 11 - - -
05/12:00pm 23.8 - - - - NNW 17 26 9 14 - - -
05/11:30am 23.5 - - - - N 19 28 10 15 - - -
05/11:00am 22.6 - - - - N 22 30 12 16 - - -
05/10:30am 22.1 - - - - NNW 28 37 15 20 - - -
05/10:00am 21.8 - - - - NNW 26 35 14 19 - - -
05/09:30am 21.2 - - - - NNW 32 41 17 22 - - -
05/09:00am 20.6 - - - - NNW 26 35 14 19 - - -
05/08:30am 19.8 - - - - NNW 26 35 14 19 - - -
05/08:00am 19.4 - - - - NNW 17 26 9 14 - - -
05/07:30am 17.1 - - - - W 11 17 6 9 - - -
05/07:00am 15.9 - - - - WSW 6 7 3 4 - - -
05/06:30am 15.6 - - - - CALM 0 0 0 0 - - -
05/06:00am 14.7 - - - - WSW 7 9 4 5 - - -
05/05:30am 15.1 - - - - WSW 11 15 6 8 - - -
05/05:00am 16.5 - - - - WNW 7 11 4 6 - - -
05/04:30am 16.6 - - - - WNW 9 13 5 7 - - -
05/04:00am 16.1 - - - - WNW 6 7 3 4 - - -
05/03:30am 16.5 - - - - WNW 4 7 2 4 - - -
05/03:00am 17.0 - - - - CALM 0 0 0 0 - - -
05/02:30am 17.5 - - - - WNW 11 17 6 9 - - -
05/02:00am 17.2 - - - - CALM 0 0 0 0 - - -
05/01:30am 17.3 - - - - WNW 6 7 3 4 - - -
05/01:00am 17.3 - - - - WNW 4 6 2 3 - - -
05/12:30am 17.2 - - - - WNW 6 7 3 4 - - -
05/12:00am 17.1 - - - - WNW 2 9 1 5 - - -
 
Date/Time
EST
Temp
°C
App
Temp
°C
Dew
Point
Rel
Hum
%
Delta-T
°C
Wind Press
QNH
hPa
Press
MSL
hPa
Rain
since 9 am
mm
Dir
 
Spd
km/h
Gust
km/h
Spd
kts
Gust
kts
04/11:30pm 17.9 - - - - WNW 6 7 3 4 - - -
04/11:00pm 18.3 - - - - SSE 9 11 5 6 - - -
04/10:30pm 18.4 - - - - SSE 6 7 3 4 - - -
04/10:00pm 18.4 - - - - SSE 6 7 3 4 - - -
04/09:30pm 18.3 - - - - CALM 0 0 0 0 - - -
04/09:00pm 18.1 - - - - CALM 0 0 0 0 - - -
04/08:30pm 18.2 - - - - CALM 0 0 0 0 - - -
04/08:00pm 18.6 - - - - SSE 6 6 3 3 - - -
04/07:30pm 18.6 - - - - SSE 7 7 4 4 - - -
04/07:00pm 18.5 - - - - CALM 0 0 0 0 - - -
04/06:30pm 19.5 - - - - SSE 6 7 3 4 - - -
04/06:00pm 19.6 - - - - SSE 9 11 5 6 - - -
04/05:30pm 19.6 - - - - SSE 6 9 3 5 - - -
04/05:00pm 19.7 - - - - SSE 9 11 5 6 - - -
04/04:30pm 19.7 - - - - SSE 11 13 6 7 - - -
04/04:00pm 19.9 - - - - SSE 11 15 6 8 - - -
04/03:30pm 20.0 - - - - S 15 19 8 10 - - -
04/03:00pm 20.1 - - - - SSE 15 20 8 11 - - -
04/02:30pm 20.1 - - - - S 17 19 9 10 - - -
04/02:00pm 20.1 - - - - S 22 26 12 14 - - -
04/01:30pm 20.1 - - - - SSW 22 28 12 15 - - -
04/01:00pm 19.9 - - - - S 28 33 15 18 - - -
04/12:30pm 19.9 - - - - SSW 24 30 13 16 - - -
04/12:00pm 19.8 - - - - SSW 28 32 15 17 - - -
04/11:30am 19.8 - - - - SSW 28 37 15 20 - - -
04/11:00am 19.6 - - - - SW 19 24 10 13 - - -
04/10:30am 19.2 - - - - SW 17 22 9 12 - - -
04/10:00am 19.0 - - - - WSW 17 22 9 12 - - -
04/09:30am 18.7 - - - - WSW 20 26 11 14 - - -
04/09:00am 18.7 - - - - WSW 19 26 10 14 - - -
04/08:30am 18.5 - - - - WSW 22 26 12 14 - - -
04/08:00am 18.3 - - - - WSW 20 28 11 15 - - -
04/07:30am 18.3 - - - - WSW 22 28 12 15 - - -
04/07:00am 18.2 - - - - SW 15 20 8 11 - - -
04/06:30am 18.0 - - - - WSW 15 20 8 11 - - -
04/06:00am 17.7 - - - - WSW 17 20 9 11 - - -
04/05:30am 17.8 - - - - WSW 20 24 11 13 - - -

Other Formats:

Comma delimited format used in spreadsheet applications
http://www.bom.gov.au/fwo/IDN60801/IDN60801.95766.axf

JavaScript Object Notation format (JSON) in row-major order
http://www.bom.gov.au/fwo/IDN60801/IDN60801.95766.json